Terminal Aerodrome Forecast
Issued by NWS

Home | Current Version | Previous Version | Text Only | Print | Product List | Glossary On
Versions: 1 2 3 4 5 6 7 8 9 10 11 12 13 14
000
FTUS44 KHGX 180520
TAFCXO
TAF
KCXO 180520Z 1806/1906 VRB05KT P6SM SCT025 BKN050
     FM181500 02009KT P6SM BKN050
     FM190200 03001KT P6SM SKC=

USA.gov is the U.S. government's official web portal to all federal, state and local government web resources and services.